14°C Temp
14°C Dewpoint
% Humidity
Temperature
2 KM/H
1 MPH
1 KTS
Calm
Due North

Wind Speed
Partly Cloudy
Conditions
Pressure 1001.92 (hPa) - 29.59 (in)
Visibility 6.2 (mi) - 10.0 (km)

Current Conditions
LIRQ
Location 70(km)
Metar :LIRQ 230550Z VRB01KT 9999 -DZ FEW040 BKN060 14/14 Q1002
Tue 23rd April 07:50 am

Airport
  Metar Aviation API Data Provided by https://www.checkwx.com/ PHP scripts by weather34.com ©2019